Time;durP1;ratioP1;P1;durP2;ratioP2;P2;SDS_P1;SDS_P2;PMS_P1;PMS_P2;Temp;Humidity;BMP_temperature;BMP_pressure;BME280_temperature;BME280_humidity;BME280_pressure;Samples;Min_cycle;Max_cycle;Signal;HPM_P1;HPM_P2
2021/07/13 00:00:23;;;;;;;46.53;37.67;;;;;;;;;;5065567;28;20128;-41
2021/07/13 00:02:50;;;;;;;;;;;;;;;;;;5049245;28;21133;-42
2021/07/13 00:05:17;;;;;;;46.55;36.95;;;;;;;;;;5056420;28;20374;-41
2021/07/13 00:07:44;;;;;;;44.40;36.25;;;;;;;;;;5059945;28;20055;-41
2021/07/13 00:10:13;;;;;;;44.90;34.20;;;;;;;;;;5040503;28;20127;-41
2021/07/13 00:12:39;;;;;;;41.97;33.60;;;;;;;;;;5046492;28;20045;-41
2021/07/13 00:15:07;;;;;;;48.03;37.20;;;;;;;;;;5043464;28;20166;-42
2021/07/13 00:17:34;;;;;;;44.95;35.92;;;;;;;;;;5048934;28;20890;-42
2021/07/13 00:20:00;;;;;;;44.40;36.15;;;;;;;;;;5047183;28;20127;-42
2021/07/13 00:22:27;;;;;;;42.00;33.55;;;;;;;;;;5053083;28;20122;-42
2021/07/13 00:24:53;;;;;;;42.67;35.55;;;;;;;;;;5055426;28;20136;-43
2021/07/13 00:27:19;;;;;;;36.80;31.25;;;;;;;;;;5055853;28;20111;-42
2021/07/13 00:29:46;;;;;;;39.72;33.08;;;;;;;;;;5054193;28;20931;-42
2021/07/13 00:32:12;;;;;;;40.10;30.90;;;;;;;;;;5055691;28;20457;-43
2021/07/13 00:34:38;;;;;;;39.47;30.70;;;;;;;;;;5062145;28;20110;-44
2021/07/13 00:37:05;;;;;;;40.35;32.13;;;;;;;;;;5056410;28;20059;-42
2021/07/13 00:39:31;;;;;;;37.80;30.90;;;;;;;;;;5066652;28;20150;-44
2021/07/13 00:41:57;;;;;;;38.58;31.70;;;;;;;;;;5062132;28;20138;-42
2021/07/13 00:44:24;;;;;;;36.88;29.92;;;;;;;;;;5051370;28;20838;-42
2021/07/13 00:46:50;;;;;;;40.70;30.13;;;;;;;;;;5062566;28;20088;-43
2021/07/13 00:49:17;;;;;;;40.20;29.15;;;;;;;;;;5054148;28;20059;-42
2021/07/13 00:51:44;;;;;;;36.63;28.85;;;;;;;;;;5062584;28;20141;-43
2021/07/13 00:54:12;;;;;;;35.42;28.70;;;;;;;;;;5060273;28;20057;-42
2021/07/13 00:56:40;;;;;;;37.40;28.83;;;;;;;;;;5060938;28;20088;-43
2021/07/13 00:59:06;;;;;;;38.78;30.73;;;;;;;;;;5047736;28;20194;-43
2021/07/13 01:01:33;;;;;;;36.03;29.67;;;;;;;;;;5044883;28;20092;-42
2021/07/13 01:04:01;;;;;;;37.38;30.77;;;;;;;;;;5045132;28;20131;-43
2021/07/13 01:06:33;;;;;;;37.00;29.52;;;;;;;;;;5045842;28;20139;-43
2021/07/13 01:09:03;;;;;;;36.00;29.95;;;;;;;;;;5057919;28;20500;-42
2021/07/13 01:11:47;;;;;;;33.78;27.75;;;;;;;;;;5040009;28;20512;-42
2021/07/13 01:14:14;;;;;;;36.65;28.70;;;;;;;;;;5055693;28;20049;-43
2021/07/13 01:16:40;;;;;;;36.80;28.83;;;;;;;;;;5056589;28;20139;-42
2021/07/13 01:19:19;;;;;;;39.65;32.03;;;;;;;;;;5061233;28;20052;-42
2021/07/13 01:21:47;;;;;;;40.65;31.63;;;;;;;;;;5042281;28;20135;-42
2021/07/13 01:24:50;;;;;;;39.42;31.25;;;;;;;;;;5066513;28;20535;-41
2021/07/13 01:27:27;;;;;;;38.83;30.25;;;;;;;;;;4997905;28;20060;-42
2021/07/13 01:29:54;;;;;;;37.80;26.90;;;;;;;;;;5048451;28;20049;-42
2021/07/13 01:32:23;;;;;;;38.90;31.33;;;;;;;;;;5061515;28;20151;-43
2021/07/13 01:34:54;;;;;;;41.58;33.30;;;;;;;;;;5058879;28;20113;-42
2021/07/13 01:37:21;;;;;;;32.45;28.10;;;;;;;;;;5066181;28;20103;-44
2021/07/13 01:39:50;;;;;;;38.92;30.83;;;;;;;;;;5060720;28;20091;-43
2021/07/13 01:42:16;;;;;;;37.60;30.95;;;;;;;;;;5063807;28;20056;-42
2021/07/13 01:44:43;;;;;;;41.85;30.63;;;;;;;;;;5041006;28;20084;-43
2021/07/13 01:47:10;;;;;;;38.53;31.70;;;;;;;;;;5055528;28;20084;-42
2021/07/13 01:49:39;;;;;;;40.00;31.80;;;;;;;;;;5049215;28;20040;-42
2021/07/13 01:52:06;;;;;;;36.78;28.95;;;;;;;;;;5067747;28;20206;-43
2021/07/13 01:54:33;;;;;;;35.45;29.55;;;;;;;;;;5070117;28;20603;-42
2021/07/13 01:57:00;;;;;;;34.70;28.17;;;;;;;;;;5059374;28;20051;-42
2021/07/13 01:59:27;;;;;;;40.63;31.38;;;;;;;;;;5065696;28;20119;-42
2021/07/13 02:01:56;;;;;;;38.58;29.42;;;;;;;;;;5061541;28;20139;-42
2021/07/13 02:04:25;;;;;;;38.20;29.30;;;;;;;;;;5069366;28;20091;-43
2021/07/13 02:06:52;;;;;;;35.58;27.27;;;;;;;;;;5062547;28;20128;-42
2021/07/13 02:09:19;;;;;;;35.58;28.27;;;;;;;;;;5069385;28;20086;-42
2021/07/13 02:11:47;;;;;;;39.22;32.20;;;;;;;;;;5057222;28;20151;-42
2021/07/13 02:14:14;;;;;;;38.22;30.83;;;;;;;;;;5067461;28;20048;-43
2021/07/13 02:16:40;;;;;;;40.22;31.42;;;;;;;;;;5069317;28;20408;-43
2021/07/13 02:19:08;;;;;;;41.45;32.05;;;;;;;;;;5063264;28;20052;-41
2021/07/13 02:21:34;;;;;;;41.10;32.22;;;;;;;;;;5068714;28;20052;-43
2021/07/13 02:24:01;;;;;;;42.55;31.77;;;;;;;;;;5058451;28;20143;-43
2021/07/13 02:26:43;;;;;;;40.58;31.48;;;;;;;;;;5065467;28;20677;-43
2021/07/13 02:29:29;;;;;;;44.65;32.60;;;;;;;;;;5062507;28;20059;-43
2021/07/13 02:31:58;;;;;;;41.50;32.35;;;;;;;;;;5067696;28;20138;-44
2021/07/13 02:34:27;;;;;;;41.17;31.35;;;;;;;;;;5063185;28;20056;-43
2021/07/13 02:36:56;;;;;;;38.95;31.52;;;;;;;;;;5066998;28;20174;-42
2021/07/13 02:39:23;;;;;;;41.75;31.42;;;;;;;;;;5056915;28;20708;-44
2021/07/13 02:41:50;;;;;;;44.30;32.38;;;;;;;;;;5067174;28;20116;-44
2021/07/13 02:44:19;;;;;;;38.55;31.27;;;;;;;;;;5068810;28;20048;-44
2021/07/13 02:46:45;;;;;;;40.00;32.13;;;;;;;;;;5062931;28;20136;-42
2021/07/13 02:49:23;;;;;;;39.85;31.08;;;;;;;;;;5068236;28;20432;-42
2021/07/13 02:51:51;;;;;;;39.03;31.77;;;;;;;;;;5057726;28;20175;-42
2021/07/13 02:54:19;;;;;;;38.78;32.17;;;;;;;;;;5065036;28;20106;-43
2021/07/13 02:56:47;;;;;;;39.45;30.90;;;;;;;;;;5062787;28;20087;-42
2021/07/13 02:59:14;;;;;;;39.53;30.85;;;;;;;;;;5050503;28;20487;-43
2021/07/13 03:01:41;;;;;;;40.55;30.08;;;;;;;;;;5061013;28;20131;-42
2021/07/13 03:04:08;;;;;;;36.00;29.63;;;;;;;;;;5067019;28;20098;-43
2021/07/13 03:06:35;;;;;;;35.13;29.50;;;;;;;;;;5061587;28;20084;-43
2021/07/13 03:09:03;;;;;;;37.73;29.80;;;;;;;;;;5061307;28;20481;-43
2021/07/13 03:11:31;;;;;;;36.38;29.67;;;;;;;;;;5066877;28;20075;-42
2021/07/13 03:13:57;;;;;;;;;;;;;;;;;;5063310;28;20080;-42
2021/07/13 03:16:24;;;;;;;38.85;30.02;;;;;;;;;;5068460;28;20483;-42
2021/07/13 03:18:51;;;;;;;38.53;29.65;;;;;;;;;;5058367;28;20076;-42
2021/07/13 03:21:22;;;;;;;38.83;29.38;;;;;;;;;;5063068;28;20083;-43
2021/07/13 03:23:49;;;;;;;42.28;32.05;;;;;;;;;;5063009;28;20071;-42
2021/07/13 03:26:15;;;;;;;42.33;32.80;;;;;;;;;;5067376;28;20086;-42
2021/07/13 03:28:42;;;;;;;39.53;30.90;;;;;;;;;;5050329;28;20048;-43
2021/07/13 03:31:09;;;;;;;39.47;30.65;;;;;;;;;;5060887;28;20052;-42
2021/07/13 03:33:36;;;;;;;40.38;30.27;;;;;;;;;;5061155;28;20052;-42
2021/07/13 03:36:03;;;;;;;38.25;30.88;;;;;;;;;;5058867;28;20106;-42
2021/07/13 03:38:30;;;;;;;40.75;30.38;;;;;;;;;;5033813;28;20101;-42
2021/07/13 03:40:56;;;;;;;37.08;29.20;;;;;;;;;;5061869;28;20052;-43
2021/07/13 03:43:26;;;;;;;41.40;31.55;;;;;;;;;;5065874;28;20088;-43
2021/07/13 03:45:54;;;;;;;39.72;31.25;;;;;;;;;;5065446;28;20385;-42
2021/07/13 03:48:22;;;;;;;42.15;33.15;;;;;;;;;;5057289;28;20045;-43
2021/07/13 03:50:48;;;;;;;45.83;34.28;;;;;;;;;;5067713;28;20052;-43
2021/07/13 03:53:15;;;;;;;43.45;34.15;;;;;;;;;;5060998;28;20049;-43
2021/07/13 03:55:42;;;;;;;47.35;35.72;;;;;;;;;;5068003;28;20044;-42
2021/07/13 03:58:11;;;;;;;48.55;36.60;;;;;;;;;;5040237;28;20270;-42
2021/07/13 04:00:37;;;;;;;47.33;36.78;;;;;;;;;;5062594;28;20471;-42
2021/07/13 04:03:03;;;;;;;45.03;34.22;;;;;;;;;;5059327;28;20137;-43
2021/07/13 04:05:30;;;;;;;48.47;37.92;;;;;;;;;;5067116;28;20059;-42
2021/07/13 04:07:57;;;;;;;48.05;35.88;;;;;;;;;;5066393;28;20048;-43
2021/07/13 04:10:23;;;;;;;46.00;35.10;;;;;;;;;;5060687;28;20107;-42
2021/07/13 04:12:50;;;;;;;44.92;34.13;;;;;;;;;;5061622;28;20052;-43
2021/07/13 04:15:16;;;;;;;48.33;35.00;;;;;;;;;;5056216;28;20056;-43
2021/07/13 04:17:43;;;;;;;44.85;33.47;;;;;;;;;;5066792;28;20052;-43
2021/07/13 04:20:09;;;;;;;48.03;33.67;;;;;;;;;;5059728;28;20984;-42
2021/07/13 04:22:36;;;;;;;47.28;34.08;;;;;;;;;;5066339;28;20802;-43
2021/07/13 04:25:04;;;;;;;47.47;34.15;;;;;;;;;;5062311;28;20079;-42
2021/07/13 04:27:30;;;;;;;46.42;35.15;;;;;;;;;;5059619;28;20084;-42
2021/07/13 04:29:57;;;;;;;46.33;34.33;;;;;;;;;;5065307;28;20048;-43
2021/07/13 04:32:23;;;;;;;44.45;34.28;;;;;;;;;;5060725;28;20052;-43
2021/07/13 04:34:50;;;;;;;49.70;34.50;;;;;;;;;;5067545;28;20052;-43
2021/07/13 04:37:16;;;;;;;44.33;32.35;;;;;;;;;;5060810;28;20148;-43
2021/07/13 04:39:43;;;;;;;46.92;34.33;;;;;;;;;;5063512;28;20147;-43
2021/07/13 04:42:09;;;;;;;46.65;33.10;;;;;;;;;;5055398;28;20554;-43
2021/07/13 04:44:35;;;;;;;45.20;34.53;;;;;;;;;;5066644;28;20083;-43
2021/07/13 04:47:02;;;;;;;47.55;35.30;;;;;;;;;;5066032;28;20883;-43
2021/07/13 04:49:31;;;;;;;39.75;30.50;;;;;;;;;;5060613;28;20783;-43
2021/07/13 04:51:58;;;;;;;49.30;34.17;;;;;;;;;;5066030;28;20080;-43
2021/07/13 04:54:25;;;;;;;47.03;34.30;;;;;;;;;;5053722;28;20424;-43
2021/07/13 04:56:51;;;;;;;49.60;36.00;;;;;;;;;;5047178;28;20040;-43
2021/07/13 04:59:18;;;;;;;55.38;39.05;;;;;;;;;;5041603;28;20146;-43
2021/07/13 05:01:44;;;;;;;52.33;36.50;;;;;;;;;;5066059;28;20491;-43
2021/07/13 05:04:11;;;;;;;53.78;37.03;;;;;;;;;;5060018;28;20052;-42
2021/07/13 05:06:38;;;;;;;52.42;36.65;;;;;;;;;;5061420;28;20067;-43
2021/07/13 05:09:04;;;;;;;54.78;39.30;;;;;;;;;;5062103;28;20580;-42
2021/07/13 05:11:33;;;;;;;57.80;38.55;;;;;;;;;;5059239;28;20139;-44
2021/07/13 05:14:01;;;;;;;52.85;38.25;;;;;;;;;;5065868;28;20090;-44
2021/07/13 05:16:28;;;;;;;64.50;45.30;;;;;;;;;;5057729;28;20136;-42
2021/07/13 05:18:56;;;;;;;72.93;47.10;;;;;;;;;;5054931;28;20377;-42
2021/07/13 05:21:22;;;;;;;82.32;51.30;;;;;;;;;;5057940;28;20143;-42
2021/07/13 05:23:49;;;;;;;88.10;54.42;;;;;;;;;;5052970;28;20127;-42
2021/07/13 05:26:15;;;;;;;87.38;53.15;;;;;;;;;;5064227;28;20143;-43
2021/07/13 05:28:42;;;;;;;85.95;53.08;;;;;;;;;;5069757;28;20139;-42
2021/07/13 05:31:08;;;;;;;88.15;54.03;;;;;;;;;;5051982;28;20087;-42
2021/07/13 05:33:34;;;;;;;84.55;51.85;;;;;;;;;;5056031;28;20118;-42
2021/07/13 05:36:01;;;;;;;86.88;54.22;;;;;;;;;;5056260;28;20048;-43
2021/07/13 05:38:27;;;;;;;96.88;57.75;;;;;;;;;;5063117;28;20052;-42
2021/07/13 05:40:54;;;;;;;100.13;59.28;;;;;;;;;;5069693;28;20769;-43
2021/07/13 05:43:24;;;;;;;97.88;56.70;;;;;;;;;;5062532;28;20122;-42
2021/07/13 05:45:50;;;;;;;95.28;56.70;;;;;;;;;;5066088;28;20135;-43
2021/07/13 05:48:16;;;;;;;97.93;58.28;;;;;;;;;;5059970;28;20056;-43
2021/07/13 05:50:43;;;;;;;90.00;55.25;;;;;;;;;;5068220;28;20140;-42
2021/07/13 05:53:09;;;;;;;93.82;56.45;;;;;;;;;;5068650;28;20052;-43
2021/07/13 05:55:36;;;;;;;100.55;55.97;;;;;;;;;;5063429;28;20128;-42
2021/07/13 05:58:02;;;;;;;99.93;57.08;;;;;;;;;;5069666;28;20131;-42
2021/07/13 06:00:28;;;;;;;98.60;57.45;;;;;;;;;;5048443;28;20144;-42
2021/07/13 06:02:55;;;;;;;96.68;54.95;;;;;;;;;;5062013;28;20486;-42
2021/07/13 06:05:21;;;;;;;92.18;55.63;;;;;;;;;;5063976;28;20134;-42
2021/07/13 06:07:48;;;;;;;100.90;56.38;;;;;;;;;;5068594;28;20135;-42
2021/07/13 06:10:16;;;;;;;111.60;58.87;;;;;;;;;;5066349;28;20074;-43
2021/07/13 06:12:43;;;;;;;101.60;56.70;;;;;;;;;;5042331;28;20121;-42
2021/07/13 06:15:09;;;;;;;106.32;58.13;;;;;;;;;;5062457;28;20713;-43
2021/07/13 06:17:38;;;;;;;111.63;60.08;;;;;;;;;;5057736;28;20425;-43
2021/07/13 06:20:05;;;;;;;105.50;55.85;;;;;;;;;;5063913;28;20143;-43
2021/07/13 06:22:31;;;;;;;118.07;61.35;;;;;;;;;;5057233;28;20480;-43
2021/07/13 06:24:58;;;;;;;127.88;63.00;;;;;;;;;;5061925;28;20149;-43
2021/07/13 06:27:24;;;;;;;118.15;61.05;;;;;;;;;;5055564;28;20099;-42
2021/07/13 06:29:51;;;;;;;122.57;61.72;;;;;;;;;;5059733;28;20136;-43
2021/07/13 06:32:17;;;;;;;131.27;65.28;;;;;;;;;;5054366;28;20127;-42
2021/07/13 06:34:44;;;;;;;125.60;61.03;;;;;;;;;;5060504;28;20072;-42
2021/07/13 06:37:10;;;;;;;120.22;61.83;;;;;;;;;;5067570;28;20128;-42
2021/07/13 06:39:36;;;;;;;123.50;63.05;;;;;;;;;;5048639;28;20179;-43
2021/07/13 06:42:03;;;;;;;114.22;58.75;;;;;;;;;;5044111;28;20061;-42
2021/07/13 06:44:29;;;;;;;127.95;63.17;;;;;;;;;;5063985;28;20052;-42
2021/07/13 06:46:56;;;;;;;120.75;60.45;;;;;;;;;;5068705;28;20060;-42
2021/07/13 06:49:22;;;;;;;122.32;61.63;;;;;;;;;;5055262;28;20040;-42
2021/07/13 06:51:51;;;;;;;133.73;66.15;;;;;;;;;;5062085;28;20149;-42
2021/07/13 06:54:18;;;;;;;123.82;63.95;;;;;;;;;;5062073;28;20076;-42
2021/07/13 06:56:45;;;;;;;125.40;62.20;;;;;;;;;;5043403;28;20044;-42
2021/07/13 06:59:11;;;;;;;118.68;62.20;;;;;;;;;;5069052;28;20052;-42
2021/07/13 07:01:38;;;;;;;134.82;65.60;;;;;;;;;;5062507;28;20568;-42
2021/07/13 07:04:04;;;;;;;131.40;63.15;;;;;;;;;;5068589;28;20052;-42
2021/07/13 07:06:31;;;;;;;136.27;67.68;;;;;;;;;;5058695;28;20468;-41
2021/07/13 07:08:57;;;;;;;139.57;65.25;;;;;;;;;;5063797;28;20135;-41
2021/07/13 07:11:23;;;;;;;129.35;65.38;;;;;;;;;;5066168;28;20066;-42
2021/07/13 07:13:50;;;;;;;136.27;67.28;;;;;;;;;;5044560;28;20194;-41
2021/07/13 07:16:20;;;;;;;138.35;66.28;;;;;;;;;;5068801;28;20049;-42
2021/07/13 07:18:46;;;;;;;131.85;64.63;;;;;;;;;;5061981;28;20045;-41
2021/07/13 07:21:13;;;;;;;143.15;66.80;;;;;;;;;;5061601;28;20082;-42
2021/07/13 07:23:39;;;;;;;132.77;63.20;;;;;;;;;;5040702;28;20509;-42
2021/07/13 07:26:06;;;;;;;132.15;64.55;;;;;;;;;;5060105;28;20094;-42
2021/07/13 07:28:35;;;;;;;124.32;61.05;;;;;;;;;;5066947;28;20053;-42
2021/07/13 07:31:01;;;;;;;122.32;63.75;;;;;;;;;;5061398;28;20087;-42
2021/07/13 07:33:27;;;;;;;124.35;62.70;;;;;;;;;;5063059;28;20135;-42
2021/07/13 07:35:54;;;;;;;135.27;64.18;;;;;;;;;;5057090;28;20052;-42
2021/07/13 07:38:20;;;;;;;127.30;63.28;;;;;;;;;;5068170;28;20139;-41
2021/07/13 07:40:47;;;;;;;117.90;62.10;;;;;;;;;;5061666;28;20076;-42
2021/07/13 07:43:13;;;;;;;124.90;63.42;;;;;;;;;;5055725;28;20084;-44
2021/07/13 07:45:40;;;;;;;127.90;63.95;;;;;;;;;;5059327;28;20517;-43
2021/07/13 07:48:06;;;;;;;132.10;64.60;;;;;;;;;;5060492;28;20076;-43
2021/07/13 07:50:32;;;;;;;122.55;61.00;;;;;;;;;;5063699;28;20087;-43
2021/07/13 07:52:59;;;;;;;116.38;59.88;;;;;;;;;;5059550;28;20786;-43
2021/07/13 07:55:26;;;;;;;116.55;60.17;;;;;;;;;;5067765;28;20102;-44
2021/07/13 07:57:53;;;;;;;104.72;54.08;;;;;;;;;;5060978;28;20155;-44
2021/07/13 08:00:21;;;;;;;111.68;58.05;;;;;;;;;;5064406;28;20238;-44
2021/07/13 08:02:47;;;;;;;106.75;57.33;;;;;;;;;;5037191;28;20874;-44
2021/07/13 08:05:17;;;;;;;100.70;53.83;;;;;;;;;;5066836;28;20076;-44
2021/07/13 08:07:44;;;;;;;102.03;54.95;;;;;;;;;;5067459;28;20127;-44
2021/07/13 08:10:12;;;;;;;106.55;54.95;;;;;;;;;;5060748;28;20670;-43
2021/07/13 08:12:38;;;;;;;116.50;55.40;;;;;;;;;;5066743;28;20044;-41
2021/07/13 08:15:08;;;;;;;113.55;54.60;;;;;;;;;;5038408;28;20102;-41
2021/07/13 08:17:35;;;;;;;105.90;54.03;;;;;;;;;;5063490;28;20091;-41
2021/07/13 08:20:03;;;;;;;114.65;52.92;;;;;;;;;;5060883;28;20512;-41
2021/07/13 08:22:30;;;;;;;98.60;52.10;;;;;;;;;;5066783;28;20135;-41
2021/07/13 08:24:56;;;;;;;92.67;48.37;;;;;;;;;;5062097;28;20488;-42
2021/07/13 08:27:23;;;;;;;90.78;48.72;;;;;;;;;;5065838;28;20547;-42
2021/07/13 08:29:49;;;;;;;77.68;45.95;;;;;;;;;;5060009;28;20151;-42
2021/07/13 08:32:15;;;;;;;70.13;41.67;;;;;;;;;;5058175;28;20135;-42
2021/07/13 08:34:42;;;;;;;71.22;41.10;;;;;;;;;;5067255;28;20131;-43
2021/07/13 08:37:08;;;;;;;72.97;43.13;;;;;;;;;;5060200;28;20127;-43
2021/07/13 08:39:34;;;;;;;59.05;38.55;;;;;;;;;;5066692;28;20131;-44
2021/07/13 08:42:03;;;;;;;61.30;38.10;;;;;;;;;;5055024;28;20135;-44
2021/07/13 08:44:29;;;;;;;;;;;;;;;;;;5063376;28;20587;-44
2021/07/13 08:46:56;;;;;;;68.47;39.15;;;;;;;;;;5049639;28;20002;-44
2021/07/13 08:49:23;;;;;;;64.95;38.95;;;;;;;;;;5065548;28;20040;-45
2021/07/13 08:51:49;;;;;;;68.28;41.47;;;;;;;;;;5065806;28;20076;-44
2021/07/13 08:54:16;;;;;;;69.22;41.17;;;;;;;;;;5059341;28;20107;-44
2021/07/13 08:56:42;;;;;;;71.68;40.88;;;;;;;;;;5061793;28;20539;-44
2021/07/13 08:59:09;;;;;;;62.33;39.28;;;;;;;;;;5058156;28;20095;-44
2021/07/13 09:01:35;;;;;;;66.57;40.35;;;;;;;;;;5066689;28;20155;-44
2021/07/13 09:04:06;;;;;;;65.35;41.10;;;;;;;;;;5059046;28;20084;-44
2021/07/13 09:06:55;;;;;;;61.55;39.10;;;;;;;;;;5067069;28;20049;-44
2021/07/13 09:09:22;;;;;;;68.57;40.85;;;;;;;;;;5056742;28;20087;-44
2021/07/13 09:12:04;;;;;;;63.78;40.67;;;;;;;;;;5055152;28;20049;-45
2021/07/13 09:14:49;;;;;;;60.65;38.00;;;;;;;;;;5060958;28;20054;-45
2021/07/13 09:17:34;;;;;;;61.53;40.22;;;;;;;;;;5066216;28;20052;-45
2021/07/13 09:20:02;;;;;;;51.75;34.25;;;;;;;;;;5065165;28;20606;-45
2021/07/13 09:22:33;;;;;;;59.25;37.97;;;;;;;;;;5056319;28;20044;-45
2021/07/13 09:24:59;;;;;;;57.83;37.58;;;;;;;;;;5060912;28;20124;-45
2021/07/13 09:27:28;;;;;;;58.65;37.22;;;;;;;;;;5060454;28;20397;-45
2021/07/13 09:29:54;;;;;;;51.40;34.45;;;;;;;;;;5065905;28;20049;-47
2021/07/13 09:32:23;;;;;;;47.53;32.95;;;;;;;;;;5059668;28;20048;-45
2021/07/13 09:34:50;;;;;;;50.03;33.83;;;;;;;;;;5065991;28;20091;-45
2021/07/13 09:37:26;;;;;;;55.95;35.63;;;;;;;;;;5055320;28;20412;-45
2021/07/13 09:40:00;;;;;;;53.10;34.20;;;;;;;;;;5065081;28;20528;-45
2021/07/13 09:42:28;;;;;;;48.03;32.45;;;;;;;;;;5062035;28;20080;-45
2021/07/13 09:45:14;;;;;;;51.20;32.95;;;;;;;;;;5058665;28;20857;-47
2021/07/13 09:47:41;;;;;;;49.58;33.17;;;;;;;;;;5048092;28;20471;-45
2021/07/13 09:50:09;;;;;;;51.78;34.25;;;;;;;;;;5054515;28;20128;-45
2021/07/13 09:52:35;;;;;;;45.97;33.30;;;;;;;;;;5063878;28;20045;-46
2021/07/13 09:55:15;;;;;;;47.97;31.67;;;;;;;;;;5058923;28;20048;-45
2021/07/13 09:57:42;;;;;;;48.55;33.15;;;;;;;;;;5066295;28;20076;-46
2021/07/13 10:00:09;;;;;;;51.38;34.67;;;;;;;;;;5059674;28;20048;-46
2021/07/13 10:02:35;;;;;;;47.97;33.63;;;;;;;;;;5061160;28;20076;-45
2021/07/13 10:05:03;;;;;;;50.10;34.58;;;;;;;;;;5061012;28;20072;-45
2021/07/13 10:07:30;;;;;;;47.50;34.03;;;;;;;;;;5060897;28;20246;-45
2021/07/13 10:10:00;;;;;;;50.40;34.43;;;;;;;;;;5069041;28;20187;-46
2021/07/13 10:12:26;;;;;;;48.72;34.15;;;;;;;;;;5062900;28;20372;-46
2021/07/13 10:14:56;;;;;;;48.50;31.83;;;;;;;;;;5069171;28;20496;-47
2021/07/13 10:17:24;;;;;;;43.85;31.58;;;;;;;;;;5056774;28;20462;-46
2021/07/13 10:19:53;;;;;;;42.85;31.08;;;;;;;;;;5067800;28;20060;-46
2021/07/13 10:22:20;;;;;;;47.42;33.05;;;;;;;;;;5061539;28;20084;-46
2021/07/13 10:24:51;;;;;;;48.27;32.20;;;;;;;;;;5069137;28;20433;-47
2021/07/13 10:27:25;;;;;;;48.22;33.75;;;;;;;;;;5067468;28;20487;-47
2021/07/13 10:29:52;;;;;;;43.92;31.77;;;;;;;;;;5064570;28;20092;-47
2021/07/13 10:32:18;;;;;;;45.08;33.17;;;;;;;;;;5064702;28;20147;-46
2021/07/13 10:35:15;;;;;;;42.30;31.45;;;;;;;;;;5062895;28;20052;-48
2021/07/13 10:37:42;;;;;;;;;;;;;;;;;;5046716;28;20117;-46
2021/07/13 10:40:10;;;;;;;44.15;30.02;;;;;;;;;;5054888;28;19968;-46
2021/07/13 10:42:39;;;;;;;44.90;32.65;;;;;;;;;;5067222;28;20059;-45
2021/07/13 10:45:15;;;;;;;42.25;31.00;;;;;;;;;;5056078;28;20139;-46
2021/07/13 10:47:56;;;;;;;43.75;32.10;;;;;;;;;;5068253;28;20052;-46
2021/07/13 10:50:22;;;;;;;44.13;31.42;;;;;;;;;;5062363;28;20052;-45
2021/07/13 10:52:55;;;;;;;47.10;31.70;;;;;;;;;;5068215;28;20113;-46
2021/07/13 10:55:41;;;;;;;44.17;31.15;;;;;;;;;;5065122;28;20080;-45
2021/07/13 10:58:09;;;;;;;40.60;29.40;;;;;;;;;;5062899;28;20575;-45
2021/07/13 11:00:58;;;;;;;44.75;30.77;;;;;;;;;;5066657;28;20052;-46
2021/07/13 11:06:04;;;;;;;44.08;29.70;;;;;;;;;;5067806;28;20148;-46
2021/07/13 11:08:49;;;;;;;39.55;27.67;;;;;;;;;;5044926;28;20633;-46
2021/07/13 11:11:18;;;;;;;42.78;29.73;;;;;;;;;;5061847;28;20052;-44
2021/07/13 11:13:51;;;;;;;41.33;29.25;;;;;;;;;;5050599;28;20044;-45
2021/07/13 11:16:21;;;;;;;43.53;30.88;;;;;;;;;;5063387;28;20161;-45
2021/07/13 11:18:48;;;;;;;45.50;31.13;;;;;;;;;;5062027;28;20488;-48
2021/07/13 11:21:15;;;;;;;47.00;31.85;;;;;;;;;;5067085;28;20056;-51
2021/07/13 11:23:42;;;;;;;47.72;30.67;;;;;;;;;;5058873;28;20056;-47
2021/07/13 11:26:09;;;;;;;45.92;31.20;;;;;;;;;;5063117;28;20091;-47
2021/07/13 11:28:36;;;;;;;41.03;29.00;;;;;;;;;;5062743;28;20168;-46
2021/07/13 11:31:03;;;;;;;48.13;32.03;;;;;;;;;;5052090;28;20143;-45
2021/07/13 11:33:29;;;;;;;47.15;32.42;;;;;;;;;;5067196;28;20052;-45
2021/07/13 11:35:57;;;;;;;50.53;34.10;;;;;;;;;;5061631;28;20052;-45
2021/07/13 11:38:24;;;;;;;45.97;32.83;;;;;;;;;;5063461;28;20135;-45
2021/07/13 11:41:10;;;;;;;50.00;33.30;;;;;;;;;;5057418;28;20052;-45
2021/07/13 11:43:37;;;;;;;49.00;34.35;;;;;;;;;;5067013;28;20718;-45
2021/07/13 11:46:12;;;;;;;49.35;33.65;;;;;;;;;;5060855;28;20063;-46
2021/07/13 11:48:39;;;;;;;53.85;35.38;;;;;;;;;;5067586;28;20786;-47
2021/07/13 11:51:08;;;;;;;47.35;33.15;;;;;;;;;;5062544;28;20083;-45
2021/07/13 11:53:35;;;;;;;52.33;34.40;;;;;;;;;;5058205;28;20135;-46
2021/07/13 11:56:02;;;;;;;54.88;36.42;;;;;;;;;;5068242;28;20476;-46
2021/07/13 11:58:29;;;;;;;44.80;33.08;;;;;;;;;;5062129;28;20488;-46
2021/07/13 12:01:13;;;;;;;46.05;32.60;;;;;;;;;;5067220;28;20374;-46
2021/07/13 12:03:40;;;;;;;54.03;36.47;;;;;;;;;;5061426;28;20444;-46
2021/07/13 12:06:07;;;;;;;48.05;35.08;;;;;;;;;;5060866;28;20327;-46
2021/07/13 12:08:37;;;;;;;47.30;33.38;;;;;;;;;;5059014;28;20143;-45
2021/07/13 12:11:07;;;;;;;46.40;33.85;;;;;;;;;;5066533;28;20055;-45
2021/07/13 12:13:34;;;;;;;47.40;33.45;;;;;;;;;;5059016;28;20128;-46
2021/07/13 12:16:22;;;;;;;45.05;33.67;;;;;;;;;;5066270;28;20586;-46
2021/07/13 12:18:50;;;;;;;49.63;34.00;;;;;;;;;;5064286;28;20053;-46
2021/07/13 12:21:17;;;;;;;36.33;28.20;;;;;;;;;;5059317;28;20168;-46
2021/07/13 12:23:55;;;;;;;53.05;35.38;;;;;;;;;;5066759;28;20064;-46
2021/07/13 12:26:26;;;;;;;44.15;32.92;;;;;;;;;;5061326;28;20139;-46
2021/07/13 12:29:09;;;;;;;45.30;32.00;;;;;;;;;;5065466;28;20056;-46
2021/07/13 12:31:57;;;;;;;44.03;32.65;;;;;;;;;;5055886;28;20052;-46
2021/07/13 12:34:28;;;;;;;43.10;33.63;;;;;;;;;;5062285;28;20408;-46
2021/07/13 12:37:04;;;;;;;47.03;34.45;;;;;;;;;;5042140;28;20052;-46
2021/07/13 12:39:30;;;;;;;48.53;34.53;;;;;;;;;;5066728;28;20134;-47
2021/07/13 12:42:01;;;;;;;45.67;35.17;;;;;;;;;;5059451;28;20109;-45
2021/07/13 12:44:32;;;;;;;46.72;34.50;;;;;;;;;;5064654;28;20056;-47
2021/07/13 12:47:17;;;;;;;45.78;32.90;;;;;;;;;;5055823;28;20106;-46
2021/07/13 12:49:57;;;;;;;44.72;34.90;;;;;;;;;;5053826;28;20567;-45
2021/07/13 12:52:29;;;;;;;44.53;33.70;;;;;;;;;;5059959;28;20051;-45
2021/07/13 12:54:57;;;;;;;43.40;33.05;;;;;;;;;;5066348;28;20471;-45
2021/07/13 12:57:27;;;;;;;44.70;33.60;;;;;;;;;;5066964;28;20544;-46
2021/07/13 12:59:57;;;;;;;43.33;33.10;;;;;;;;;;5054336;28;20136;-47
2021/07/13 13:02:23;;;;;;;43.40;31.60;;;;;;;;;;5044772;28;20555;-47
2021/07/13 13:04:50;;;;;;;51.63;36.30;;;;;;;;;;5059859;28;20084;-46
2021/07/13 13:07:20;;;;;;;45.17;35.25;;;;;;;;;;5066706;28;20055;-46
2021/07/13 13:09:46;;;;;;;46.83;35.80;;;;;;;;;;5058976;28;20627;-45
2021/07/13 13:12:14;;;;;;;48.85;35.35;;;;;;;;;;5052242;28;20056;-45
2021/07/13 13:14:40;;;;;;;47.63;36.25;;;;;;;;;;5056222;28;20044;-45
2021/07/13 13:17:07;;;;;;;46.38;34.95;;;;;;;;;;5064055;28;20168;-44
2021/07/13 13:19:33;;;;;;;46.50;35.03;;;;;;;;;;5067112;28;20122;-46
2021/07/13 13:22:00;;;;;;;42.28;32.17;;;;;;;;;;5059618;28;20088;-45
2021/07/13 13:24:26;;;;;;;46.97;33.90;;;;;;;;;;5062640;28;20052;-45
2021/07/13 13:26:52;;;;;;;40.75;32.70;;;;;;;;;;5053138;28;20764;-44
2021/07/13 13:29:20;;;;;;;44.93;33.00;;;;;;;;;;5046011;28;20069;-47
2021/07/13 13:31:46;;;;;;;44.10;33.33;;;;;;;;;;5044485;28;20369;-46
2021/07/13 13:34:13;;;;;;;45.65;32.55;;;;;;;;;;5066504;28;20055;-46
2021/07/13 13:36:43;;;;;;;37.33;29.40;;;;;;;;;;5056502;28;20052;-47
2021/07/13 13:39:17;;;;;;;34.67;26.10;;;;;;;;;;5052802;28;20132;-46
2021/07/13 13:41:44;;;;;;;33.33;25.88;;;;;;;;;;5054094;28;20083;-46
2021/07/13 13:44:11;;;;;;;35.70;27.87;;;;;;;;;;5062912;28;20139;-45
2021/07/13 13:46:38;;;;;;;40.97;29.05;;;;;;;;;;5070095;28;20805;-45
2021/07/13 13:49:05;;;;;;;37.53;28.83;;;;;;;;;;5062362;28;20052;-47
2021/07/13 13:51:32;;;;;;;33.97;25.20;;;;;;;;;;5068815;28;20136;-46
2021/07/13 13:53:58;;;;;;;41.58;30.35;;;;;;;;;;5060482;28;20062;-45
2021/07/13 13:56:27;;;;;;;35.72;27.42;;;;;;;;;;5059934;28;20076;-45
2021/07/13 13:58:54;;;;;;;47.22;34.33;;;;;;;;;;5061370;28;20048;-45
2021/07/13 14:01:22;;;;;;;51.72;37.45;;;;;;;;;;5062675;28;20088;-47
2021/07/13 14:03:48;;;;;;;60.38;42.33;;;;;;;;;;5069612;28;20052;-46
2021/07/13 14:06:15;;;;;;;63.10;40.13;;;;;;;;;;5061728;28;20798;-48
2021/07/13 14:08:43;;;;;;;57.63;38.27;;;;;;;;;;5063192;28;20199;-44
2021/07/13 14:11:10;;;;;;;58.33;37.60;;;;;;;;;;5061382;28;20179;-45
2021/07/13 14:13:36;;;;;;;62.60;41.83;;;;;;;;;;5069353;28;20055;-47
2021/07/13 14:16:08;;;;;;;58.97;40.88;;;;;;;;;;5062725;28;20080;-46
2021/07/13 14:18:34;;;;;;;58.70;40.08;;;;;;;;;;5064874;28;20050;-46
2021/07/13 14:21:01;;;;;;;56.53;37.60;;;;;;;;;;5048514;28;20059;-45
2021/07/13 14:23:27;;;;;;;58.45;38.97;;;;;;;;;;5047409;28;20214;-45
2021/07/13 14:25:53;;;;;;;54.03;37.92;;;;;;;;;;5053089;28;20175;-44